createdAt,value
2018-12-01T00:01:15.193Z,20.37
2018-12-01T00:03:42.571Z,20.90
2018-12-01T00:06:10.034Z,20.70
2018-12-01T00:08:38.078Z,21.40
2018-12-01T00:11:05.768Z,20.90
2018-12-01T00:13:33.395Z,21.43
2018-12-01T00:16:00.886Z,20.97
2018-12-01T00:18:28.596Z,20.57
2018-12-01T00:20:55.938Z,21.40
2018-12-01T00:23:23.364Z,20.30
2018-12-01T00:25:51.666Z,21.70
2018-12-01T00:28:19.080Z,20.63
2018-12-01T00:30:46.618Z,22.37
2018-12-01T00:33:14.065Z,20.73
2018-12-01T00:35:41.896Z,21.70
2018-12-01T00:38:09.282Z,21.47
2018-12-01T00:40:36.657Z,21.60
2018-12-01T00:43:04.068Z,22.13
2018-12-01T00:45:31.420Z,21.53
2018-12-01T00:47:58.872Z,21.73
2018-12-01T00:50:26.382Z,22.50
2018-12-01T00:52:53.907Z,21.30
2018-12-01T00:55:21.547Z,22.23
2018-12-01T00:57:49.142Z,22.33
2018-12-01T01:00:24.155Z,22.33
2018-12-01T01:02:54.401Z,21.50
2018-12-01T01:05:22.990Z,21.57
2018-12-01T01:07:50.465Z,21.80
2018-12-01T01:10:18.467Z,21.97
2018-12-01T01:12:46.261Z,22.40
2018-12-01T01:15:14.479Z,23.67
2018-12-01T01:17:42.043Z,22.00
2018-12-01T01:20:12.716Z,21.83
2018-12-01T01:22:40.821Z,23.20
2018-12-01T01:25:08.905Z,22.97
2018-12-01T01:27:36.467Z,21.37
2018-12-01T01:30:11.281Z,22.17
2018-12-01T01:32:38.720Z,22.03
2018-12-01T01:35:06.559Z,22.80
2018-12-01T01:37:33.922Z,21.67
2018-12-01T01:40:01.313Z,20.80
2018-12-01T01:42:28.708Z,21.50
2018-12-01T01:44:56.023Z,21.07
2018-12-01T01:47:23.528Z,22.20
2018-12-01T01:49:50.992Z,21.57
2018-12-01T01:52:18.314Z,21.63
2018-12-01T01:54:45.822Z,21.67
2018-12-01T01:57:13.642Z,21.57
2018-12-01T01:59:41.170Z,22.17
2018-12-01T02:02:08.689Z,22.87
2018-12-01T02:04:36.290Z,20.13
2018-12-01T02:07:04.039Z,22.43
2018-12-01T02:09:31.505Z,21.90
2018-12-01T02:11:58.947Z,21.27
2018-12-01T02:14:26.328Z,21.53
2018-12-01T02:16:53.727Z,20.37
2018-12-01T02:19:21.190Z,21.13
2018-12-01T02:21:48.559Z,21.60
2018-12-01T02:24:16.017Z,20.07
2018-12-01T02:26:43.491Z,20.70
2018-12-01T02:29:10.834Z,20.93
2018-12-01T02:31:38.279Z,20.83
2018-12-01T02:34:05.773Z,21.73
2018-12-01T02:36:33.210Z,20.37
2018-12-01T02:39:00.579Z,20.80
2018-12-01T02:41:27.986Z,21.27
2018-12-01T02:44:06.874Z,19.73
2018-12-01T02:46:45.704Z,20.50
2018-12-01T02:49:13.090Z,19.47
2018-12-01T02:51:40.680Z,20.53
2018-12-01T02:54:08.163Z,20.37
2018-12-01T02:56:35.714Z,20.30
2018-12-01T02:59:03.161Z,20.10
2018-12-01T03:01:30.508Z,19.63
2018-12-01T03:03:57.972Z,20.80
2018-12-01T03:06:28.238Z,20.63
2018-12-01T03:08:55.752Z,18.73
2018-12-01T03:11:23.096Z,20.53
2018-12-01T03:13:50.423Z,19.13
2018-12-01T03:16:17.836Z,20.40
2018-12-01T03:18:46.267Z,19.43
2018-12-01T03:21:13.651Z,19.10
2018-12-01T03:23:41.727Z,19.63
2018-12-01T03:26:09.037Z,21.00
2018-12-01T03:28:36.585Z,21.27
2018-12-01T03:31:04.014Z,19.90
2018-12-01T03:33:31.377Z,19.50
2018-12-01T03:35:58.883Z,18.73
2018-12-01T03:38:26.255Z,20.73
2018-12-01T03:40:53.610Z,19.70
2018-12-01T03:43:20.974Z,20.40
2018-12-01T03:45:48.522Z,18.67
2018-12-01T03:48:15.947Z,19.27
2018-12-01T03:50:43.452Z,18.10
2018-12-01T03:53:11.715Z,18.03
2018-12-01T03:55:39.167Z,19.37
2018-12-01T03:58:06.676Z,18.90
2018-12-01T04:00:34.860Z,18.57
2018-12-01T04:03:03.835Z,18.73
2018-12-01T04:05:31.565Z,19.13
2018-12-01T04:07:59.053Z,17.77
2018-12-01T04:10:26.467Z,19.27
2018-12-01T04:12:54.400Z,19.67
2018-12-01T04:15:21.791Z,18.67
2018-12-01T04:17:49.185Z,19.07
2018-12-01T04:20:16.534Z,19.00
2018-12-01T04:22:44.051Z,18.37
2018-12-01T04:25:11.591Z,17.77
2018-12-01T04:27:39.038Z,17.83
2018-12-01T04:30:15.637Z,18.13
2018-12-01T04:32:42.994Z,17.53
2018-12-01T04:35:15.168Z,18.47
2018-12-01T04:37:42.869Z,16.33
2018-12-01T04:40:10.320Z,16.77
2018-12-01T04:42:37.682Z,16.30
2018-12-01T04:45:06.354Z,16.07
2018-12-01T04:47:33.698Z,15.47
2018-12-01T04:50:01.032Z,17.47
2018-12-01T04:52:28.544Z,17.40
2018-12-01T04:54:56.000Z,15.73
2018-12-01T04:57:23.498Z,16.90
2018-12-01T04:59:50.912Z,15.13
2018-12-01T05:02:18.308Z,16.03
2018-12-01T05:04:45.986Z,15.97
2018-12-01T05:07:13.452Z,15.67
2018-12-01T05:09:40.786Z,15.77
2018-12-01T05:12:08.145Z,15.63
2018-12-01T05:14:35.514Z,15.10
2018-12-01T05:17:04.663Z,15.13
2018-12-01T05:19:32.085Z,15.13
2018-12-01T05:21:59.572Z,15.27
2018-12-01T05:24:27.006Z,14.90
2018-12-01T05:26:54.379Z,18.33
2018-12-01T05:29:21.867Z,17.43
2018-12-01T05:31:49.247Z,19.23
2018-12-01T05:34:16.767Z,17.43
2018-12-01T05:36:44.116Z,16.40
2018-12-01T05:39:11.591Z,16.17
2018-12-01T05:41:39.039Z,16.17
2018-12-01T05:44:06.379Z,16.07
2018-12-01T05:46:33.841Z,15.23
2018-12-01T05:49:01.233Z,15.30
2018-12-01T05:51:28.555Z,17.87
2018-12-01T05:53:55.931Z,17.57
2018-12-01T05:56:23.293Z,16.83
2018-12-01T05:58:50.685Z,16.10
2018-12-01T06:01:18.105Z,16.70
2018-12-01T06:03:45.718Z,16.80
2018-12-01T06:06:13.704Z,16.37
2018-12-01T06:08:41.090Z,16.33
2018-12-01T06:11:09.406Z,16.47
2018-12-01T06:13:36.805Z,16.30
2018-12-01T06:16:04.144Z,17.33
2018-12-01T06:18:31.472Z,17.83
2018-12-01T06:20:58.848Z,16.83
2018-12-01T06:23:26.160Z,17.07
2018-12-01T06:25:53.549Z,18.73
2018-12-01T06:28:20.873Z,17.20
2018-12-01T06:30:48.268Z,16.37
2018-12-01T06:33:15.611Z,17.87
2018-12-01T06:35:43.038Z,16.43
2018-12-01T06:38:10.436Z,18.90
2018-12-01T06:40:37.782Z,18.07
2018-12-01T06:43:05.641Z,17.37
2018-12-01T06:45:33.078Z,17.07
2018-12-01T06:48:00.531Z,16.87
2018-12-01T06:50:27.883Z,17.50
2018-12-01T06:52:55.225Z,17.43
2018-12-01T06:55:23.695Z,17.47
2018-12-01T06:57:51.032Z,17.30
2018-12-01T07:00:20.610Z,16.97
2018-12-01T07:02:48.339Z,17.93
2018-12-01T07:05:16.357Z,17.30
2018-12-01T07:07:44.260Z,16.40
2018-12-01T07:10:12.775Z,16.63
2018-12-01T07:12:41.602Z,17.67
2018-12-01T07:15:11.219Z,17.77
2018-12-01T07:17:38.652Z,17.67
2018-12-01T07:20:07.246Z,18.43
2018-12-01T07:22:34.574Z,17.57
2018-12-01T07:25:02.071Z,16.93
2018-12-01T07:27:29.532Z,17.23
2018-12-01T07:29:58.198Z,17.47
2018-12-01T07:32:24.336Z,16.63
2018-12-01T07:34:51.714Z,16.93
2018-12-01T07:37:19.194Z,15.97
2018-12-01T07:39:48.642Z,16.60
2018-12-01T07:42:17.004Z,16.63
2018-12-01T07:44:45.020Z,16.07
2018-12-01T07:47:12.560Z,17.23
2018-12-01T07:49:39.985Z,16.80
2018-12-01T07:52:07.353Z,16.70
2018-12-01T07:54:34.807Z,16.10
2018-12-01T07:57:02.136Z,15.60
2018-12-01T07:59:30.682Z,15.37
2018-12-01T08:01:58.046Z,15.43
2018-12-01T08:04:25.479Z,15.47
2018-12-01T08:06:52.918Z,16.47
2018-12-01T08:09:20.303Z,15.63
2018-12-01T08:11:47.718Z,16.07
2018-12-01T08:14:15.151Z,15.33
2018-12-01T08:16:42.649Z,15.50
2018-12-01T08:19:10.022Z,14.07
2018-12-01T08:21:37.409Z,15.10
2018-12-01T08:24:04.945Z,15.23
2018-12-01T08:26:32.848Z,15.90
2018-12-01T08:29:00.288Z,15.27
2018-12-01T08:31:27.655Z,14.53
2018-12-01T08:33:54.981Z,13.97
2018-12-01T08:36:22.485Z,15.10
2018-12-01T08:38:49.806Z,14.03
2018-12-01T08:41:17.176Z,14.87
2018-12-01T08:43:45.163Z,14.77
2018-12-01T08:46:12.091Z,14.57
2018-12-01T08:48:39.535Z,13.30
2018-12-01T08:51:06.932Z,13.63
2018-12-01T08:53:34.265Z,13.73
2018-12-01T08:56:01.832Z,12.87
2018-12-01T08:58:29.434Z,12.70
2018-12-01T09:00:56.949Z,12.83
2018-12-01T09:03:24.384Z,11.57
2018-12-01T09:05:52.804Z,12.47
2018-12-01T09:08:20.237Z,11.90
2018-12-01T09:10:47.679Z,12.30
2018-12-01T09:13:15.120Z,11.13
2018-12-01T09:15:42.453Z,11.47
2018-12-01T09:18:10.017Z,11.10
2018-12-01T09:20:37.409Z,11.40
2018-12-01T09:23:05.257Z,10.63
2018-12-01T09:25:32.608Z,11.37
2018-12-01T09:28:00.573Z,11.93
2018-12-01T09:30:29.453Z,10.93
2018-12-01T09:32:57.461Z,11.60
2018-12-01T09:35:24.375Z,11.13
2018-12-01T09:37:52.047Z,10.47
2018-12-01T09:40:20.603Z,11.60
2018-12-01T09:42:48.252Z,11.20
2018-12-01T09:45:16.669Z,11.70
2018-12-01T09:47:45.686Z,10.83
2018-12-01T09:50:14.160Z,10.40
2018-12-01T09:52:42.295Z,10.63
2018-12-01T09:55:12.715Z,10.30
2018-12-01T09:57:41.036Z,10.03
2018-12-01T10:00:10.454Z,9.47
2018-12-01T10:02:38.328Z,10.07
2018-12-01T10:05:07.660Z,9.47
2018-12-01T10:07:35.178Z,9.20
2018-12-01T10:10:02.675Z,9.67
2018-12-01T10:12:30.119Z,9.93
2018-12-01T10:14:57.501Z,10.33
2018-12-01T10:17:24.901Z,9.97
2018-12-01T10:19:52.425Z,8.97
2018-12-01T10:22:19.766Z,9.00
2018-12-01T10:24:47.235Z,8.97
2018-12-01T10:27:15.939Z,8.37
2018-12-01T10:29:45.041Z,9.13
2018-12-01T10:32:12.447Z,8.27
2018-12-01T10:34:39.805Z,8.87
2018-12-01T10:37:07.196Z,7.40
2018-12-01T10:39:36.632Z,8.70
2018-12-01T10:42:04.192Z,7.60
2018-12-01T10:44:31.721Z,7.43
2018-12-01T10:46:59.304Z,7.40
2018-12-01T10:49:26.661Z,7.40
2018-12-01T10:51:54.033Z,7.10
2018-12-01T10:54:21.593Z,7.10
2018-12-01T10:56:49.011Z,6.90
2018-12-01T10:59:16.391Z,6.80
2018-12-01T11:02:55.606Z,6.40
2018-12-01T11:05:20.080Z,6.60
2018-12-01T11:07:47.458Z,6.97
2018-12-01T11:10:15.168Z,7.00
2018-12-01T11:12:43.019Z,6.40
2018-12-01T11:15:10.533Z,6.20
2018-12-01T11:17:37.966Z,6.87
2018-12-01T11:20:08.162Z,6.50
2018-12-01T11:22:35.698Z,6.73
2018-12-01T11:25:04.710Z,6.33
2018-12-01T11:27:32.315Z,6.80
2018-12-01T11:29:59.672Z,6.67
2018-12-01T11:32:27.050Z,6.33
2018-12-01T11:34:54.560Z,6.20
2018-12-01T11:37:21.874Z,6.40
2018-12-01T11:39:49.347Z,5.80
2018-12-01T11:42:16.704Z,6.30
2018-12-01T11:44:44.905Z,6.40
2018-12-01T11:47:12.302Z,6.43
2018-12-01T11:49:40.333Z,6.07
2018-12-01T11:52:07.776Z,6.30
2018-12-01T11:54:35.226Z,6.47
2018-12-01T11:57:02.645Z,6.33
2018-12-01T11:59:30.128Z,6.67
2018-12-01T12:02:00.348Z,6.27
2018-12-01T12:04:25.078Z,6.10
2018-12-01T12:06:52.487Z,5.97
2018-12-01T12:09:20.873Z,6.03
2018-12-01T12:11:48.462Z,6.17
2018-12-01T12:14:15.915Z,5.90
2018-12-01T12:16:43.286Z,6.17
2018-12-01T12:19:10.685Z,6.20
2018-12-01T12:21:38.061Z,5.97
2018-12-01T12:24:05.614Z,5.27
2018-12-01T12:26:33.173Z,5.67
2018-12-01T12:29:00.515Z,5.57
2018-12-01T12:31:27.957Z,5.33
2018-12-01T12:33:55.293Z,5.70
2018-12-01T12:36:22.700Z,5.40
2018-12-01T12:38:50.140Z,5.63
2018-12-01T12:41:17.596Z,6.00
2018-12-01T12:43:44.977Z,4.80
2018-12-01T12:46:12.375Z,5.23
2018-12-01T12:48:39.705Z,5.40
2018-12-01T12:51:07.511Z,4.80
2018-12-01T12:53:34.878Z,4.67
2018-12-01T12:56:02.370Z,4.53
2018-12-01T12:58:29.882Z,4.43
2018-12-01T13:00:57.336Z,4.40
2018-12-01T13:03:24.804Z,3.90
2018-12-01T13:05:52.302Z,4.40
2018-12-01T13:08:19.922Z,4.47
2018-12-01T13:10:47.542Z,4.27
2018-12-01T13:13:14.940Z,3.87
2018-12-01T13:15:42.284Z,3.70
2018-12-01T13:18:11.192Z,4.13
2018-12-01T13:20:38.936Z,3.93
2018-12-01T13:23:07.176Z,4.20
2018-12-01T13:25:34.943Z,4.30
2018-12-01T13:28:09.764Z,4.00
2018-12-01T13:30:40.450Z,4.00
2018-12-01T13:33:07.884Z,4.37
2018-12-01T13:35:35.387Z,4.50
2018-12-01T13:38:02.847Z,3.80
2018-12-01T13:40:31.254Z,4.20
2018-12-01T13:42:58.689Z,4.27
2018-12-01T13:45:26.179Z,4.17
2018-12-01T13:47:53.649Z,4.00
2018-12-01T13:50:21.361Z,3.87
2018-12-01T13:52:54.150Z,4.10
2018-12-01T13:55:21.534Z,4.27
2018-12-01T13:57:48.961Z,4.47
2018-12-01T14:00:17.681Z,4.00
2018-12-01T14:02:45.285Z,4.20
2018-12-01T14:05:13.015Z,4.40
2018-12-01T14:07:40.505Z,4.50
2018-12-01T14:10:16.239Z,4.23
2018-12-01T14:12:45.164Z,4.30
2018-12-01T14:15:17.421Z,4.40
2018-12-01T14:17:44.920Z,4.70
2018-12-01T14:20:13.520Z,4.63
2018-12-01T14:22:41.146Z,4.00
2018-12-01T14:25:09.692Z,4.07
2018-12-01T14:27:37.640Z,4.57
2018-12-01T14:30:11.377Z,4.30
2018-12-01T14:32:38.833Z,4.23
2018-12-01T14:35:10.546Z,4.10
2018-12-01T14:37:37.986Z,4.47
2018-12-01T14:40:07.954Z,4.20
2018-12-01T14:42:35.344Z,4.03
2018-12-01T14:45:02.774Z,4.57
2018-12-01T14:47:30.164Z,4.93
2018-12-01T14:49:57.520Z,4.17
2018-12-01T14:52:24.904Z,5.00
2018-12-01T14:54:52.258Z,4.20
2018-12-01T14:57:19.628Z,3.90
2018-12-01T14:59:47.096Z,4.50
2018-12-01T15:02:14.472Z,4.33
2018-12-01T15:04:41.850Z,3.73
2018-12-01T15:07:09.273Z,4.03
2018-12-01T15:09:37.424Z,3.97
2018-12-01T15:12:06.301Z,4.43
2018-12-01T15:14:33.792Z,4.50
2018-12-01T15:17:01.150Z,4.50
2018-12-01T15:19:28.723Z,5.00
2018-12-01T15:21:56.083Z,4.67
2018-12-01T15:24:23.507Z,4.93
2018-12-01T15:26:50.968Z,4.70
2018-12-01T15:29:18.466Z,5.70
2018-12-01T15:31:46.086Z,5.13
2018-12-01T15:34:13.444Z,5.33
2018-12-01T15:36:40.904Z,5.00
2018-12-01T15:39:10.499Z,4.93
2018-12-01T15:41:37.982Z,5.10
2018-12-01T15:44:06.611Z,5.30
2018-12-01T15:46:34.212Z,5.43
2018-12-01T15:49:03.172Z,5.97
2018-12-01T15:51:29.681Z,5.40
2018-12-01T15:53:57.048Z,5.80
2018-12-01T15:56:24.555Z,5.20
2018-12-01T15:58:52.175Z,5.53
2018-12-01T16:01:19.696Z,4.70
2018-12-01T16:03:47.415Z,5.50
2018-12-01T16:06:14.818Z,5.00
2018-12-01T16:08:42.249Z,5.40
2018-12-01T16:11:09.668Z,6.10
2018-12-01T16:13:37.104Z,6.00
2018-12-01T16:16:07.359Z,5.77
2018-12-01T16:18:35.421Z,5.23
2018-12-01T16:21:02.740Z,5.13
2018-12-01T16:23:30.233Z,5.27
2018-12-01T16:25:57.699Z,5.37
2018-12-01T16:28:25.152Z,6.30
2018-12-01T16:30:52.533Z,5.03
2018-12-01T16:33:20.613Z,5.43
2018-12-01T16:35:49.761Z,5.53
2018-12-01T16:38:19.234Z,5.87
2018-12-01T16:40:56.249Z,5.30
2018-12-01T16:43:24.383Z,6.37
2018-12-01T16:45:52.359Z,5.77
2018-12-01T16:48:20.176Z,5.50
2018-12-01T16:50:47.521Z,7.10
2018-12-01T16:53:16.437Z,5.97
2018-12-01T16:55:44.104Z,6.00
2018-12-01T16:58:11.591Z,5.73
2018-12-01T17:00:39.218Z,5.87
2018-12-01T17:03:08.479Z,6.10
2018-12-01T17:05:37.474Z,5.50
2018-12-01T17:08:05.186Z,5.07
2018-12-01T17:10:32.696Z,4.97
2018-12-01T17:13:00.399Z,6.70
2018-12-01T17:15:27.794Z,6.87
2018-12-01T17:17:55.278Z,6.30
2018-12-01T17:20:22.642Z,5.63
2018-12-01T17:22:54.834Z,5.13
2018-12-01T17:25:22.278Z,5.47
2018-12-01T17:27:50.517Z,5.00
2018-12-01T17:30:19.387Z,5.77
2018-12-01T17:32:47.874Z,5.13
2018-12-01T17:35:17.454Z,6.10
2018-12-01T17:37:46.407Z,5.23
2018-12-01T17:40:17.463Z,4.60
2018-12-01T17:42:47.136Z,4.47
2018-12-01T17:45:14.545Z,4.70
2018-12-01T17:47:41.927Z,4.60
2018-12-01T17:50:15.020Z,4.63
2018-12-01T17:52:49.172Z,4.47
2018-12-01T17:55:16.923Z,4.30
2018-12-01T17:57:45.114Z,4.80
2018-12-01T18:00:16.015Z,4.67
2018-12-01T18:02:42.514Z,4.30
2018-12-01T18:05:12.768Z,4.60
2018-12-01T18:07:40.244Z,4.63
2018-12-01T18:10:10.378Z,4.30
2018-12-01T18:12:37.761Z,5.20
2018-12-01T18:15:09.037Z,4.80
2018-12-01T18:17:36.468Z,4.97
2018-12-01T18:20:04.726Z,5.33
2018-12-01T18:22:32.902Z,5.10
2018-12-01T18:25:00.455Z,4.70
2018-12-01T18:27:27.800Z,4.57
2018-12-01T18:29:55.389Z,4.93
2018-12-01T18:32:22.767Z,4.90
2018-12-01T18:34:50.139Z,4.50
2018-12-01T18:37:18.507Z,4.60
2018-12-01T18:39:45.888Z,4.77
2018-12-01T18:42:13.299Z,4.57
2018-12-01T18:44:44.038Z,8.83
2018-12-01T18:47:11.617Z,16.17
2018-12-01T18:49:39.784Z,7.17
2018-12-01T18:52:07.169Z,5.80
2018-12-01T18:54:34.611Z,5.00
2018-12-01T18:57:02.046Z,5.60
2018-12-01T18:59:29.438Z,5.10
2018-12-01T19:01:56.802Z,5.57
2018-12-01T19:04:24.197Z,6.23
2018-12-01T19:06:51.687Z,5.77
2018-12-01T19:09:19.083Z,5.90
2018-12-01T19:11:46.526Z,4.90
2018-12-01T19:14:13.978Z,5.00
2018-12-01T19:16:41.392Z,5.23
2018-12-01T19:19:08.844Z,5.20
2018-12-01T19:21:36.215Z,5.53
2018-12-01T19:24:03.731Z,4.77
2018-12-01T19:26:31.165Z,5.50
2018-12-01T19:28:58.531Z,4.87
2018-12-01T19:31:25.960Z,5.17
2018-12-01T19:33:53.373Z,5.03
2018-12-01T19:36:20.800Z,4.80
2018-12-01T19:38:48.201Z,5.30
2018-12-01T19:41:15.674Z,5.77
2018-12-01T19:43:43.066Z,4.97
2018-12-01T19:46:10.453Z,4.87
2018-12-01T19:48:37.827Z,4.80
2018-12-01T19:51:05.585Z,4.63
2018-12-01T19:53:32.992Z,4.67
2018-12-01T19:56:00.363Z,4.90
2018-12-01T19:58:28.799Z,4.70
2018-12-01T20:00:57.316Z,5.00
2018-12-01T20:03:25.890Z,5.13
2018-12-01T20:05:53.283Z,4.97
2018-12-01T20:08:21.110Z,4.73
2018-12-01T20:10:52.771Z,4.40
2018-12-01T20:13:27.764Z,5.27
2018-12-01T20:16:00.315Z,4.63
2018-12-01T20:18:28.345Z,4.53
2018-12-01T20:20:55.775Z,4.63
2018-12-01T20:23:23.164Z,4.80
2018-12-01T20:25:51.105Z,4.40
2018-12-01T20:28:18.745Z,4.80
2018-12-01T20:30:46.816Z,5.17
2018-12-01T20:33:14.534Z,5.73
2018-12-01T20:35:45.865Z,4.93
2018-12-01T20:38:21.115Z,5.40
2018-12-01T20:40:48.545Z,5.07
2018-12-01T20:43:16.016Z,5.80
2018-12-01T20:45:43.507Z,6.00
2018-12-01T20:48:12.612Z,5.07
2018-12-01T20:50:40.141Z,5.17
2018-12-01T20:53:08.010Z,4.80
2018-12-01T20:55:36.049Z,5.43
2018-12-01T20:58:05.878Z,5.30
2018-12-01T21:00:33.454Z,5.30
2018-12-01T21:03:00.866Z,5.53
2018-12-01T21:05:28.421Z,4.90
2018-12-01T21:07:55.813Z,6.23
2018-12-01T21:10:30.139Z,5.87
2018-12-01T21:12:59.074Z,5.43
2018-12-01T21:15:26.473Z,5.63
2018-12-01T21:17:53.945Z,5.90
2018-12-01T21:20:21.306Z,5.57
2018-12-01T21:22:49.919Z,4.90
2018-12-01T21:32:07.998Z,5.07
2018-12-01T21:34:35.470Z,5.40
2018-12-01T21:37:03.096Z,4.93
2018-12-01T21:39:30.429Z,5.53
2018-12-01T21:41:57.809Z,5.60
2018-12-01T21:44:25.192Z,6.40
2018-12-01T21:46:52.576Z,6.43
2018-12-01T21:49:19.926Z,6.30
2018-12-01T21:51:47.387Z,6.10
2018-12-01T21:54:14.917Z,5.47
2018-12-01T21:56:42.379Z,5.07
2018-12-01T21:59:09.795Z,5.23
2018-12-01T22:01:37.242Z,4.80
2018-12-01T22:04:04.978Z,5.30
2018-12-01T22:06:32.507Z,4.90
2018-12-01T22:08:59.802Z,4.70
2018-12-01T22:11:27.149Z,4.90
2018-12-01T22:13:54.430Z,4.40
2018-12-01T22:16:21.731Z,4.43
2018-12-01T22:18:48.958Z,4.50
2018-12-01T22:21:16.231Z,4.60
2018-12-01T22:23:43.552Z,3.93
2018-12-01T22:26:10.853Z,4.07
2018-12-01T22:28:38.162Z,3.83
2018-12-01T22:31:05.588Z,3.57
2018-12-01T22:33:32.954Z,3.83
2018-12-01T22:36:00.293Z,3.73
2018-12-01T22:38:27.581Z,3.50
2018-12-01T22:40:54.962Z,3.47
2018-12-01T22:43:22.909Z,3.93
2018-12-01T22:45:50.227Z,3.13
2018-12-01T22:48:19.210Z,3.40
2018-12-01T22:50:48.133Z,3.10
2018-12-01T22:53:15.452Z,3.27
2018-12-01T22:55:43.379Z,3.17
2018-12-01T22:58:13.333Z,2.70
2018-12-01T23:00:48.411Z,2.90
2018-12-01T23:03:15.768Z,3.17
2018-12-01T23:05:43.227Z,2.83
2018-12-01T23:08:12.241Z,2.73
2018-12-01T23:10:39.556Z,2.77
2018-12-01T23:13:07.288Z,2.80
2018-12-01T23:15:34.770Z,3.37
2018-12-01T23:18:02.114Z,3.30
2018-12-01T23:20:29.414Z,2.77
2018-12-01T23:22:56.854Z,2.70
2018-12-01T23:25:24.100Z,3.07
2018-12-01T23:27:51.520Z,2.60
2018-12-01T23:30:24.024Z,2.63
2018-12-01T23:32:55.764Z,2.47
2018-12-01T23:35:23.170Z,2.73
2018-12-01T23:37:50.570Z,2.47
2018-12-01T23:40:17.997Z,2.80
2018-12-01T23:42:45.351Z,2.40
2018-12-01T23:45:16.558Z,2.50
2018-12-01T23:47:44.607Z,2.80
2018-12-01T23:50:18.454Z,2.20
2018-12-01T23:52:47.269Z,2.83
2018-12-01T23:55:14.877Z,2.50
2018-12-01T23:57:42.514Z,2.60
